Terminal Aerodrome Forecast
Issued by NWS Melbourne, FL

Home | Current Version | Previous Version | Text Only | Print | Product List | Glossary On
Versions: 1 2 3 4 5 6 7 8 9 10 11 12 13 14 15 16
000
FTUS42 KMLB 201100
TAFVRB
TAF
KVRB 201125Z 2012/2112 VRB04KT P6SM -RA SCT035 OVC110
     FM201500 28005KT P6SM VCSH BKN030 OVC050
     FM201800 26008KT P6SM VCSH SCT030 OVC050
      TEMPO 2018/2021 3SM SHRA BKN025
     FM210000 25003KT P6SM VCSH SCT020 BKN040=

USA.gov is the U.S. government's official web portal to all federal, state and local government web resources and services.